sensor_id;sensor_type;location;lat;lon;timestamp;pressure;altitude;pressure_sealevel;temperature;humidity
11621;BME280;5866;49.094;11.900;2023-03-23T00:01:57;95665.78;;;11.69;85.24
11621;BME280;5866;49.094;11.900;2023-03-23T00:04:23;95662.81;;;11.50;86.55
11621;BME280;5866;49.094;11.900;2023-03-23T00:06:52;95671.44;;;11.52;87.09
11621;BME280;5866;49.094;11.900;2023-03-23T00:09:19;95664.53;;;11.43;87.56
11621;BME280;5866;49.094;11.900;2023-03-23T00:11:50;95660.28;;;11.71;85.23
11621;BME280;5866;49.094;11.900;2023-03-23T00:14:22;95663.59;;;11.73;84.42
11621;BME280;5866;49.094;11.900;2023-03-23T00:16:50;95655.25;;;11.76;84.43
11621;BME280;5866;49.094;11.900;2023-03-23T00:19:17;95649.41;;;11.80;83.80
11621;BME280;5866;49.094;11.900;2023-03-23T00:21:45;95660.88;;;11.58;84.96
11621;BME280;5866;49.094;11.900;2023-03-23T00:24:13;95654.00;;;11.49;85.88
11621;BME280;5866;49.094;11.900;2023-03-23T00:26:43;95662.34;;;11.46;86.03
11621;BME280;5866;49.094;11.900;2023-03-23T00:29:14;95660.47;;;11.17;88.44
11621;BME280;5866;49.094;11.900;2023-03-23T00:31:41;95669.81;;;11.28;88.42
11621;BME280;5866;49.094;11.900;2023-03-23T00:34:11;95653.81;;;11.36;87.16
11621;BME280;5866;49.094;11.900;2023-03-23T00:36:38;95649.91;;;11.61;84.93
11621;BME280;5866;49.094;11.900;2023-03-23T00:39:08;95647.91;;;11.78;83.06
11621;BME280;5866;49.094;11.900;2023-03-23T00:41:34;95650.78;;;11.76;81.94
11621;BME280;5866;49.094;11.900;2023-03-23T00:44:02;95645.66;;;11.89;80.85
11621;BME280;5866;49.094;11.900;2023-03-23T00:46:30;95646.81;;;11.87;80.19
11621;BME280;5866;49.094;11.900;2023-03-23T00:48:57;95648.41;;;12.32;77.21
11621;BME280;5866;49.094;11.900;2023-03-23T00:51:23;95640.09;;;12.56;74.71
11621;BME280;5866;49.094;11.900;2023-03-23T00:53:50;95640.81;;;12.86;71.82
11621;BME280;5866;49.094;11.900;2023-03-23T00:56:17;95633.00;;;12.84;71.38
11621;BME280;5866;49.094;11.900;2023-03-23T00:58:43;95631.00;;;13.07;70.21
11621;BME280;5866;49.094;11.900;2023-03-23T01:01:10;95636.84;;;12.96;70.31
11621;BME280;5866;49.094;11.900;2023-03-23T01:03:38;95642.97;;;12.97;70.54
11621;BME280;5866;49.094;11.900;2023-03-23T01:06:06;95641.19;;;13.04;70.05
11621;BME280;5866;49.094;11.900;2023-03-23T01:08:38;95645.44;;;12.98;70.16
11621;BME280;5866;49.094;11.900;2023-03-23T01:11:11;95641.25;;;12.89;70.30
11621;BME280;5866;49.094;11.900;2023-03-23T01:13:38;95629.69;;;12.75;71.37
11621;BME280;5866;49.094;11.900;2023-03-23T01:16:05;95634.53;;;12.72;71.54
11621;BME280;5866;49.094;11.900;2023-03-23T01:18:32;95627.00;;;12.75;71.72
11621;BME280;5866;49.094;11.900;2023-03-23T01:21:04;95627.44;;;12.79;71.23
11621;BME280;5866;49.094;11.900;2023-03-23T01:23:32;95628.59;;;12.91;70.38
11621;BME280;5866;49.094;11.900;2023-03-23T01:26:02;95631.38;;;12.83;70.47
11621;BME280;5866;49.094;11.900;2023-03-23T01:28:29;95623.66;;;12.88;69.97
11621;BME280;5866;49.094;11.900;2023-03-23T01:30:59;95617.81;;;12.99;69.33
11621;BME280;5866;49.094;11.900;2023-03-23T01:33:26;95613.88;;;12.95;68.84
11621;BME280;5866;49.094;11.900;2023-03-23T01:35:52;95619.19;;;12.95;68.74
11621;BME280;5866;49.094;11.900;2023-03-23T01:38:20;95605.75;;;13.03;68.27
11621;BME280;5866;49.094;11.900;2023-03-23T01:40:46;95609.13;;;13.12;67.65
11621;BME280;5866;49.094;11.900;2023-03-23T01:43:14;95605.25;;;12.93;67.83
11621;BME280;5866;49.094;11.900;2023-03-23T01:45:41;95605.13;;;12.80;68.94
11621;BME280;5866;49.094;11.900;2023-03-23T01:48:12;95606.59;;;12.83;69.59
11621;BME280;5866;49.094;11.900;2023-03-23T01:50:45;95603.22;;;12.95;69.05
11621;BME280;5866;49.094;11.900;2023-03-23T01:53:13;95605.88;;;12.95;68.52
11621;BME280;5866;49.094;11.900;2023-03-23T01:55:43;95617.81;;;12.78;69.61
11621;BME280;5866;49.094;11.900;2023-03-23T01:58:13;95614.00;;;12.66;70.25
11621;BME280;5866;49.094;11.900;2023-03-23T02:00:41;95617.50;;;12.66;70.33
11621;BME280;5866;49.094;11.900;2023-03-23T02:03:08;95617.47;;;12.45;71.69
11621;BME280;5866;49.094;11.900;2023-03-23T02:05:38;95619.50;;;12.43;72.02
11621;BME280;5866;49.094;11.900;2023-03-23T02:08:07;95618.75;;;12.49;71.01
11621;BME280;5866;49.094;11.900;2023-03-23T02:10:35;95621.72;;;12.61;70.31
11621;BME280;5866;49.094;11.900;2023-03-23T02:13:06;95621.00;;;12.67;69.31
11621;BME280;5866;49.094;11.900;2023-03-23T02:15:39;95617.44;;;12.81;67.68
11621;BME280;5866;49.094;11.900;2023-03-23T02:18:17;95611.72;;;12.84;66.82
11621;BME280;5866;49.094;11.900;2023-03-23T02:26:53;95625.03;;;12.84;65.15
11621;BME280;5866;49.094;11.900;2023-03-23T02:29:33;95618.94;;;13.11;63.74
11621;BME280;5866;49.094;11.900;2023-03-23T02:32:13;95613.63;;;13.11;63.10
11621;BME280;5866;49.094;11.900;2023-03-23T02:34:49;95610.94;;;13.32;61.60
11621;BME280;5866;49.094;11.900;2023-03-23T02:37:21;95613.94;;;13.50;61.31
11621;BME280;5866;49.094;11.900;2023-03-23T02:39:51;95612.00;;;13.66;62.59
11621;BME280;5866;49.094;11.900;2023-03-23T02:42:22;95614.00;;;13.64;62.32
11621;BME280;5866;49.094;11.900;2023-03-23T02:44:52;95616.03;;;13.62;62.06
11621;BME280;5866;49.094;11.900;2023-03-23T02:47:23;95620.84;;;13.73;61.23
11621;BME280;5866;49.094;11.900;2023-03-23T02:49:54;95610.81;;;13.75;60.15
11621;BME280;5866;49.094;11.900;2023-03-23T02:52:24;95613.31;;;13.83;59.64
11621;BME280;5866;49.094;11.900;2023-03-23T02:54:52;95617.88;;;13.95;59.09
11621;BME280;5866;49.094;11.900;2023-03-23T02:57:22;95606.25;;;14.03;60.19
11621;BME280;5866;49.094;11.900;2023-03-23T02:59:49;95622.41;;;13.61;61.80
11621;BME280;5866;49.094;11.900;2023-03-23T03:02:17;95609.22;;;13.87;60.53
11621;BME280;5866;49.094;11.900;2023-03-23T03:04:48;95622.16;;;13.55;65.35
11621;BME280;5866;49.094;11.900;2023-03-23T03:07:35;95624.97;;;13.47;65.33
11621;BME280;5866;49.094;11.900;2023-03-23T03:10:07;95621.47;;;13.40;69.07
11621;BME280;5866;49.094;11.900;2023-03-23T03:12:41;95627.50;;;13.55;67.82
11621;BME280;5866;49.094;11.900;2023-03-23T03:15:22;95626.06;;;13.25;69.54
11621;BME280;5866;49.094;11.900;2023-03-23T03:17:57;95625.34;;;12.96;69.89
11621;BME280;5866;49.094;11.900;2023-03-23T03:20:28;95620.91;;;12.60;73.36
11621;BME280;5866;49.094;11.900;2023-03-23T03:22:57;95611.34;;;12.87;73.61
11621;BME280;5866;49.094;11.900;2023-03-23T03:25:25;95601.63;;;13.01;72.26
11621;BME280;5866;49.094;11.900;2023-03-23T03:27:54;95606.94;;;13.22;71.60
11621;BME280;5866;49.094;11.900;2023-03-23T03:30:25;95607.16;;;13.20;70.34
11621;BME280;5866;49.094;11.900;2023-03-23T03:32:54;95601.69;;;13.28;69.55
11621;BME280;5866;49.094;11.900;2023-03-23T03:35:21;95605.47;;;13.13;71.27
11621;BME280;5866;49.094;11.900;2023-03-23T03:37:49;95605.19;;;12.44;82.01
11621;BME280;5866;49.094;11.900;2023-03-23T03:40:20;95601.97;;;12.49;80.83
11621;BME280;5866;49.094;11.900;2023-03-23T03:42:47;95596.50;;;12.36;79.37
11621;BME280;5866;49.094;11.900;2023-03-23T03:45:15;95590.81;;;12.60;77.63
11621;BME280;5866;49.094;11.900;2023-03-23T03:47:42;95591.75;;;12.73;76.99
11621;BME280;5866;49.094;11.900;2023-03-23T03:50:10;95587.19;;;12.89;78.95
11621;BME280;5866;49.094;11.900;2023-03-23T03:52:37;95588.53;;;12.57;79.72
11621;BME280;5866;49.094;11.900;2023-03-23T03:55:06;95582.63;;;12.40;80.43
11621;BME280;5866;49.094;11.900;2023-03-23T03:57:34;95577.03;;;12.50;79.26
11621;BME280;5866;49.094;11.900;2023-03-23T04:00:02;95575.56;;;12.68;77.99
11621;BME280;5866;49.094;11.900;2023-03-23T04:02:38;95582.97;;;12.52;79.34
11621;BME280;5866;49.094;11.900;2023-03-23T04:05:06;95583.75;;;12.67;79.20
11621;BME280;5866;49.094;11.900;2023-03-23T04:07:34;95592.44;;;12.19;80.47
11621;BME280;5866;49.094;11.900;2023-03-23T04:10:02;95597.81;;;11.75;83.78
11621;BME280;5866;49.094;11.900;2023-03-23T04:12:29;95599.25;;;11.92;85.57
11621;BME280;5866;49.094;11.900;2023-03-23T04:14:57;95607.16;;;12.00;84.63
11621;BME280;5866;49.094;11.900;2023-03-23T04:17:24;95583.38;;;12.34;83.34
11621;BME280;5866;49.094;11.900;2023-03-23T04:19:51;95594.59;;;12.51;82.19
11621;BME280;5866;49.094;11.900;2023-03-23T04:22:17;95592.47;;;12.40;83.09
11621;BME280;5866;49.094;11.900;2023-03-23T04:24:44;95597.13;;;12.17;84.25
11621;BME280;5866;49.094;11.900;2023-03-23T04:27:10;95600.03;;;12.22;85.44
11621;BME280;5866;49.094;11.900;2023-03-23T04:29:38;95601.16;;;12.13;84.36
11621;BME280;5866;49.094;11.900;2023-03-23T04:32:06;95600.25;;;12.06;83.88
11621;BME280;5866;49.094;11.900;2023-03-23T04:34:32;95602.00;;;11.98;84.62
11621;BME280;5866;49.094;11.900;2023-03-23T04:37:00;95599.63;;;11.89;85.81
11621;BME280;5866;49.094;11.900;2023-03-23T04:39:27;95596.22;;;12.10;86.19
11621;BME280;5866;49.094;11.900;2023-03-23T04:41:54;95603.81;;;12.13;85.18
11621;BME280;5866;49.094;11.900;2023-03-23T04:44:21;95598.75;;;12.18;82.75
11621;BME280;5866;49.094;11.900;2023-03-23T04:46:47;95590.53;;;12.13;82.30
11621;BME280;5866;49.094;11.900;2023-03-23T04:49:16;95597.03;;;12.10;83.42
11621;BME280;5866;49.094;11.900;2023-03-23T04:51:47;95591.94;;;12.30;81.19
11621;BME280;5866;49.094;11.900;2023-03-23T04:54:16;95590.13;;;12.16;82.20
11621;BME280;5866;49.094;11.900;2023-03-23T04:56:42;95581.75;;;11.98;84.19
11621;BME280;5866;49.094;11.900;2023-03-23T04:59:08;95582.75;;;11.96;84.10
11621;BME280;5866;49.094;11.900;2023-03-23T05:01:35;95583.59;;;12.33;82.98
11621;BME280;5866;49.094;11.900;2023-03-23T05:04:04;95589.84;;;12.25;82.84
11621;BME280;5866;49.094;11.900;2023-03-23T05:06:31;95579.53;;;12.37;81.77
11621;BME280;5866;49.094;11.900;2023-03-23T05:08:58;95597.38;;;12.22;83.57
11621;BME280;5866;49.094;11.900;2023-03-23T05:11:25;95592.84;;;12.37;81.35
11621;BME280;5866;49.094;11.900;2023-03-23T05:13:52;95590.31;;;12.50;79.29
11621;BME280;5866;49.094;11.900;2023-03-23T05:16:18;95585.78;;;12.65;77.26
11621;BME280;5866;49.094;11.900;2023-03-23T05:18:45;95591.47;;;12.62;77.77
11621;BME280;5866;49.094;11.900;2023-03-23T05:21:11;95590.56;;;12.55;78.56
11621;BME280;5866;49.094;11.900;2023-03-23T05:23:40;95597.91;;;12.53;79.45
11621;BME280;5866;49.094;11.900;2023-03-23T05:26:07;95603.16;;;12.46;80.69
11621;BME280;5866;49.094;11.900;2023-03-23T05:28:34;95601.53;;;12.10;81.22
11621;BME280;5866;49.094;11.900;2023-03-23T05:31:01;95607.53;;;12.33;80.53
11621;BME280;5866;49.094;11.900;2023-03-23T05:33:28;95612.09;;;12.39;79.47
11621;BME280;5866;49.094;11.900;2023-03-23T05:35:54;95603.22;;;12.74;75.83
11621;BME280;5866;49.094;11.900;2023-03-23T05:38:21;95600.91;;;12.86;74.53
11621;BME280;5866;49.094;11.900;2023-03-23T05:40:49;95603.75;;;12.63;75.45
11621;BME280;5866;49.094;11.900;2023-03-23T05:43:15;95601.91;;;12.85;74.46
11621;BME280;5866;49.094;11.900;2023-03-23T05:45:42;95593.16;;;13.12;72.22
11621;BME280;5866;49.094;11.900;2023-03-23T05:48:08;95592.31;;;13.11;70.00
11621;BME280;5866;49.094;11.900;2023-03-23T05:50:35;95595.31;;;13.23;69.91
11621;BME280;5866;49.094;11.900;2023-03-23T05:53:01;95597.22;;;13.35;69.04
11621;BME280;5866;49.094;11.900;2023-03-23T05:55:29;95600.72;;;13.08;70.29
11621;BME280;5866;49.094;11.900;2023-03-23T05:57:58;95586.75;;;12.85;72.63
11621;BME280;5866;49.094;11.900;2023-03-23T06:00:24;95591.72;;;12.88;75.39
11621;BME280;5866;49.094;11.900;2023-03-23T06:02:54;95602.22;;;13.17;74.75
11621;BME280;5866;49.094;11.900;2023-03-23T06:05:22;95592.91;;;13.34;72.11
11621;BME280;5866;49.094;11.900;2023-03-23T06:07:50;95590.97;;;13.01;72.67
11621;BME280;5866;49.094;11.900;2023-03-23T06:10:17;95587.69;;;12.99;72.71
11621;BME280;5866;49.094;11.900;2023-03-23T06:12:43;95594.25;;;12.96;73.35
11621;BME280;5866;49.094;11.900;2023-03-23T06:15:12;95581.56;;;12.98;74.10
11621;BME280;5866;49.094;11.900;2023-03-23T06:17:39;95583.19;;;12.99;75.15
11621;BME280;5866;49.094;11.900;2023-03-23T06:20:07;95582.41;;;13.26;74.50
11621;BME280;5866;49.094;11.900;2023-03-23T06:22:35;95581.72;;;13.18;74.52
11621;BME280;5866;49.094;11.900;2023-03-23T06:25:04;95588.09;;;13.51;72.95
11621;BME280;5866;49.094;11.900;2023-03-23T06:27:30;95588.75;;;13.94;69.33
11621;BME280;5866;49.094;11.900;2023-03-23T06:29:57;95588.47;;;14.23;67.01
11621;BME280;5866;49.094;11.900;2023-03-23T06:32:26;95585.53;;;14.05;68.43
11621;BME280;5866;49.094;11.900;2023-03-23T06:34:55;95578.59;;;14.17;68.09
11621;BME280;5866;49.094;11.900;2023-03-23T06:37:22;95583.78;;;13.78;68.88
11621;BME280;5866;49.094;11.900;2023-03-23T06:39:49;95582.56;;;13.87;68.88
11621;BME280;5866;49.094;11.900;2023-03-23T06:42:17;95582.59;;;13.93;69.26
11621;BME280;5866;49.094;11.900;2023-03-23T06:44:43;95578.38;;;13.65;69.75
11621;BME280;5866;49.094;11.900;2023-03-23T06:47:10;95583.34;;;13.81;68.41
11621;BME280;5866;49.094;11.900;2023-03-23T06:49:38;95586.91;;;13.88;68.55
11621;BME280;5866;49.094;11.900;2023-03-23T06:52:05;95578.09;;;14.35;67.33
11621;BME280;5866;49.094;11.900;2023-03-23T06:54:31;95584.06;;;14.43;67.95
11621;BME280;5866;49.094;11.900;2023-03-23T06:56:58;95584.94;;;14.63;65.75
11621;BME280;5866;49.094;11.900;2023-03-23T06:59:24;95582.84;;;14.52;65.89
11621;BME280;5866;49.094;11.900;2023-03-23T07:01:51;95580.78;;;14.54;66.76
11621;BME280;5866;49.094;11.900;2023-03-23T07:04:18;95579.19;;;14.73;65.52
11621;BME280;5866;49.094;11.900;2023-03-23T07:06:46;95578.03;;;14.28;67.52
11621;BME280;5866;49.094;11.900;2023-03-23T07:09:12;95582.88;;;14.05;68.78
11621;BME280;5866;49.094;11.900;2023-03-23T07:11:39;95586.47;;;13.84;72.28
11621;BME280;5866;49.094;11.900;2023-03-23T07:14:06;95582.53;;;13.74;71.95
11621;BME280;5866;49.094;11.900;2023-03-23T07:16:33;95582.53;;;13.74;72.92
11621;BME280;5866;49.094;11.900;2023-03-23T07:18:59;95585.94;;;13.61;74.38
11621;BME280;5866;49.094;11.900;2023-03-23T07:21:26;95582.56;;;13.87;73.13
11621;BME280;5866;49.094;11.900;2023-03-23T07:23:54;95590.19;;;14.37;71.44
11621;BME280;5866;49.094;11.900;2023-03-23T07:26:20;95587.19;;;14.12;71.89
11621;BME280;5866;49.094;11.900;2023-03-23T07:28:48;95589.22;;;14.04;72.43
11621;BME280;5866;49.094;11.900;2023-03-23T07:31:14;95593.38;;;14.13;71.87
11621;BME280;5866;49.094;11.900;2023-03-23T07:33:41;95590.03;;;14.58;69.75
11621;BME280;5866;49.094;11.900;2023-03-23T07:36:09;95593.78;;;14.70;68.45
11621;BME280;5866;49.094;11.900;2023-03-23T07:38:36;95597.31;;;15.03;66.80
11621;BME280;5866;49.094;11.900;2023-03-23T07:41:04;95607.19;;;15.09;64.99
11621;BME280;5866;49.094;11.900;2023-03-23T07:43:31;95587.44;;;15.10;66.75
11621;BME280;5866;49.094;11.900;2023-03-23T07:45:58;95590.53;;;15.07;64.79
11621;BME280;5866;49.094;11.900;2023-03-23T07:48:25;95595.06;;;15.13;65.02
11621;BME280;5866;49.094;11.900;2023-03-23T07:50:51;95594.84;;;15.08;65.28
11621;BME280;5866;49.094;11.900;2023-03-23T07:53:18;95599.97;;;15.30;63.90
11621;BME280;5866;49.094;11.900;2023-03-23T07:55:46;95603.06;;;15.53;62.63
11621;BME280;5866;49.094;11.900;2023-03-23T07:58:14;95606.38;;;15.48;62.47
11621;BME280;5866;49.094;11.900;2023-03-23T08:00:44;95610.03;;;15.28;62.87
11621;BME280;5866;49.094;11.900;2023-03-23T08:03:11;95605.72;;;15.40;63.33
11621;BME280;5866;49.094;11.900;2023-03-23T08:05:38;95605.34;;;15.43;63.17
11621;BME280;5866;49.094;11.900;2023-03-23T08:08:07;95617.03;;;15.42;63.96
11621;BME280;5866;49.094;11.900;2023-03-23T08:10:34;95615.22;;;15.49;63.29
11621;BME280;5866;49.094;11.900;2023-03-23T08:13:02;95615.41;;;15.54;63.20
11621;BME280;5866;49.094;11.900;2023-03-23T08:15:30;95624.19;;;15.94;61.96
11621;BME280;5866;49.094;11.900;2023-03-23T08:17:58;95626.34;;;16.29;59.81
11621;BME280;5866;49.094;11.900;2023-03-23T08:20:26;95623.19;;;16.45;59.31
11621;BME280;5866;49.094;11.900;2023-03-23T08:22:54;95629.69;;;16.18;59.91
11621;BME280;5866;49.094;11.900;2023-03-23T08:25:22;95622.25;;;16.20;60.54
11621;BME280;5866;49.094;11.900;2023-03-23T08:27:49;95625.78;;;16.08;61.78
11621;BME280;5866;49.094;11.900;2023-03-23T08:30:18;95616.78;;;16.02;61.40
11621;BME280;5866;49.094;11.900;2023-03-23T08:32:47;95626.84;;;16.00;61.87
11621;BME280;5866;49.094;11.900;2023-03-23T08:35:14;95619.31;;;16.35;60.92
11621;BME280;5866;49.094;11.900;2023-03-23T08:37:42;95618.84;;;16.51;59.98
11621;BME280;5866;49.094;11.900;2023-03-23T08:40:10;95622.56;;;16.56;60.23
11621;BME280;5866;49.094;11.900;2023-03-23T08:42:40;95630.75;;;16.61;59.75
11621;BME280;5866;49.094;11.900;2023-03-23T08:45:10;95632.41;;;16.62;59.76
11621;BME280;5866;49.094;11.900;2023-03-23T08:47:37;95630.63;;;16.88;59.55
11621;BME280;5866;49.094;11.900;2023-03-23T08:50:07;95632.72;;;16.79;59.27
11621;BME280;5866;49.094;11.900;2023-03-23T08:52:36;95628.66;;;17.32;58.24
11621;BME280;5866;49.094;11.900;2023-03-23T08:55:03;95633.63;;;17.60;58.50
11621;BME280;5866;49.094;11.900;2023-03-23T08:57:30;95639.03;;;17.78;56.31
11621;BME280;5866;49.094;11.900;2023-03-23T08:59:57;95643.22;;;17.92;56.60
11621;BME280;5866;49.094;11.900;2023-03-23T09:02:25;95642.56;;;18.33;54.60
11621;BME280;5866;49.094;11.900;2023-03-23T09:04:52;95644.59;;;18.19;54.94
11621;BME280;5866;49.094;11.900;2023-03-23T09:07:20;95642.88;;;18.07;54.21
11621;BME280;5866;49.094;11.900;2023-03-23T09:09:46;95642.63;;;17.90;51.79
11621;BME280;5866;49.094;11.900;2023-03-23T09:12:13;95646.72;;;16.81;53.48
11621;BME280;5866;49.094;11.900;2023-03-23T09:14:39;95653.88;;;16.49;54.33
11621;BME280;5866;49.094;11.900;2023-03-23T09:17:06;95643.53;;;16.59;54.79
11621;BME280;5866;49.094;11.900;2023-03-23T09:19:34;95657.88;;;16.72;54.24
11621;BME280;5866;49.094;11.900;2023-03-23T09:22:01;95649.34;;;16.94;54.38
11621;BME280;5866;49.094;11.900;2023-03-23T09:24:30;95649.16;;;16.89;53.83
11621;BME280;5866;49.094;11.900;2023-03-23T09:26:57;95646.44;;;16.45;54.22
11621;BME280;5866;49.094;11.900;2023-03-23T09:29:24;95651.34;;;16.61;54.17
11621;BME280;5866;49.094;11.900;2023-03-23T09:31:52;95645.09;;;16.74;55.05
11621;BME280;5866;49.094;11.900;2023-03-23T09:34:19;95648.59;;;17.12;53.85
11621;BME280;5866;49.094;11.900;2023-03-23T09:36:46;95650.66;;;17.41;53.28
11621;BME280;5866;49.094;11.900;2023-03-23T09:39:13;95650.81;;;16.90;55.98
11621;BME280;5866;49.094;11.900;2023-03-23T09:42:05;95654.78;;;16.75;56.42
11621;BME280;5866;49.094;11.900;2023-03-23T09:44:45;95650.75;;;16.97;55.62
11621;BME280;5866;49.094;11.900;2023-03-23T09:47:19;95663.31;;;17.34;54.75
11621;BME280;5866;49.094;11.900;2023-03-23T09:49:50;95653.91;;;18.17;52.74
11621;BME280;5866;49.094;11.900;2023-03-23T09:52:20;95652.66;;;18.19;51.91
11621;BME280;5866;49.094;11.900;2023-03-23T09:54:49;95650.44;;;18.35;51.29
11621;BME280;5866;49.094;11.900;2023-03-23T09:57:23;95656.06;;;18.26;51.33
11621;BME280;5866;49.094;11.900;2023-03-23T09:59:55;95660.09;;;18.90;51.06
11621;BME280;5866;49.094;11.900;2023-03-23T10:02:27;95658.75;;;18.26;49.88
11621;BME280;5866;49.094;11.900;2023-03-23T10:05:12;95658.44;;;18.16;51.20
11621;BME280;5866;49.094;11.900;2023-03-23T10:07:42;95654.44;;;18.25;50.27
11621;BME280;5866;49.094;11.900;2023-03-23T10:10:12;95663.84;;;18.89;50.07
11621;BME280;5866;49.094;11.900;2023-03-23T10:12:45;95665.13;;;19.16;49.64
11621;BME280;5866;49.094;11.900;2023-03-23T10:15:17;95656.91;;;19.11;49.05
11621;BME280;5866;49.094;11.900;2023-03-23T10:17:52;95659.28;;;19.72;47.67
11621;BME280;5866;49.094;11.900;2023-03-23T10:20:30;95654.47;;;20.55;45.88
11621;BME280;5866;49.094;11.900;2023-03-23T10:23:04;95648.56;;;19.95;46.51
11621;BME280;5866;49.094;11.900;2023-03-23T10:25:35;95651.00;;;19.97;47.12
11621;BME280;5866;49.094;11.900;2023-03-23T10:28:06;95644.94;;;19.90;47.50
11621;BME280;5866;49.094;11.900;2023-03-23T10:30:38;95654.19;;;19.94;48.68
11621;BME280;5866;49.094;11.900;2023-03-23T10:33:13;95657.16;;;19.21;48.61
11621;BME280;5866;49.094;11.900;2023-03-23T10:35:43;95661.63;;;19.27;48.35
11621;BME280;5866;49.094;11.900;2023-03-23T10:38:14;95664.09;;;19.58;48.23
11621;BME280;5866;49.094;11.900;2023-03-23T10:40:48;95650.03;;;19.56;47.92
11621;BME280;5866;49.094;11.900;2023-03-23T10:43:17;95662.72;;;20.14;47.33
11621;BME280;5866;49.094;11.900;2023-03-23T10:45:45;95665.53;;;20.19;47.09
11621;BME280;5866;49.094;11.900;2023-03-23T10:48:17;95659.28;;;19.60;49.35
11621;BME280;5866;49.094;11.900;2023-03-23T10:50:50;95656.31;;;19.50;49.39
11621;BME280;5866;49.094;11.900;2023-03-23T10:53:19;95650.25;;;19.43;48.53
11621;BME280;5866;49.094;11.900;2023-03-23T10:55:47;95652.81;;;19.38;48.78
11621;BME280;5866;49.094;11.900;2023-03-23T10:58:28;95647.78;;;19.42;47.98
11621;BME280;5866;49.094;11.900;2023-03-23T11:00:56;95650.53;;;19.76;48.82
11621;BME280;5866;49.094;11.900;2023-03-23T11:03:27;95647.72;;;20.41;47.04
11621;BME280;5866;49.094;11.900;2023-03-23T11:05:59;95643.38;;;21.03;46.09
11621;BME280;5866;49.094;11.900;2023-03-23T11:08:30;95636.03;;;21.15;45.17
11621;BME280;5866;49.094;11.900;2023-03-23T11:11:09;95630.91;;;21.13;44.31
11621;BME280;5866;49.094;11.900;2023-03-23T11:13:41;95630.28;;;20.83;44.63
11621;BME280;5866;49.094;11.900;2023-03-23T11:16:09;95634.50;;;20.79;45.07
11621;BME280;5866;49.094;11.900;2023-03-23T11:18:39;95639.63;;;20.41;45.46
11621;BME280;5866;49.094;11.900;2023-03-23T11:21:07;95628.38;;;19.63;46.73
11621;BME280;5866;49.094;11.900;2023-03-23T11:23:37;95656.22;;;19.57;47.14
11621;BME280;5866;49.094;11.900;2023-03-23T11:26:11;95644.91;;;19.66;47.47
11621;BME280;5866;49.094;11.900;2023-03-23T11:28:45;95658.22;;;19.61;49.50
11621;BME280;5866;49.094;11.900;2023-03-23T11:31:13;95649.81;;;20.50;46.31
11621;BME280;5866;49.094;11.900;2023-03-23T11:33:48;95654.00;;;20.58;45.81
11621;BME280;5866;49.094;11.900;2023-03-23T11:36:17;95654.28;;;20.45;45.30
11621;BME280;5866;49.094;11.900;2023-03-23T11:38:45;95645.72;;;19.78;45.88
11621;BME280;5866;49.094;11.900;2023-03-23T11:41:12;95655.47;;;19.91;46.21
11621;BME280;5866;49.094;11.900;2023-03-23T11:43:46;95663.44;;;20.21;45.97
11621;BME280;5866;49.094;11.900;2023-03-23T11:46:20;95650.31;;;20.24;46.24
11621;BME280;5866;49.094;11.900;2023-03-23T11:48:54;95640.69;;;19.70;46.43
11621;BME280;5866;49.094;11.900;2023-03-23T11:51:30;95653.81;;;19.78;47.93
11621;BME280;5866;49.094;11.900;2023-03-23T11:54:02;95649.03;;;20.04;46.43
11621;BME280;5866;49.094;11.900;2023-03-23T11:56:34;95665.63;;;19.66;47.66
11621;BME280;5866;49.094;11.900;2023-03-23T11:59:08;95654.81;;;19.43;48.12
11621;BME280;5866;49.094;11.900;2023-03-23T12:01:46;95653.72;;;18.55;48.92
11621;BME280;5866;49.094;11.900;2023-03-23T12:04:27;95650.88;;;18.50;49.28
11621;BME280;5866;49.094;11.900;2023-03-23T12:07:06;95651.06;;;18.12;49.74
11621;BME280;5866;49.094;11.900;2023-03-23T12:09:42;95660.84;;;18.24;50.67
11621;BME280;5866;49.094;11.900;2023-03-23T12:12:16;95663.53;;;18.43;51.06
11621;BME280;5866;49.094;11.900;2023-03-23T12:14:51;95664.75;;;18.83;49.20
11621;BME280;5866;49.094;11.900;2023-03-23T12:17:27;95651.22;;;18.35;50.82
11621;BME280;5866;49.094;11.900;2023-03-23T12:20:05;95660.66;;;18.44;50.07
11621;BME280;5866;49.094;11.900;2023-03-23T12:22:52;95660.75;;;17.95;51.86
11621;BME280;5866;49.094;11.900;2023-03-23T12:25:41;95671.44;;;18.38;52.88
11621;BME280;5866;49.094;11.900;2023-03-23T12:28:18;95665.50;;;18.54;50.64
11621;BME280;5866;49.094;11.900;2023-03-23T12:30:55;95656.28;;;18.07;52.22
11621;BME280;5866;49.094;11.900;2023-03-23T12:33:33;95661.16;;;18.35;51.41
11621;BME280;5866;49.094;11.900;2023-03-23T12:36:11;95652.72;;;17.70;52.88
11621;BME280;5866;49.094;11.900;2023-03-23T12:38:53;95668.28;;;17.24;54.41
11621;BME280;5866;49.094;11.900;2023-03-23T12:41:27;95663.06;;;17.67;55.27
11621;BME280;5866;49.094;11.900;2023-03-23T12:43:59;95656.00;;;17.72;54.81
11621;BME280;5866;49.094;11.900;2023-03-23T12:46:41;95660.28;;;17.55;54.93
11621;BME280;5866;49.094;11.900;2023-03-23T12:49:13;95662.75;;;17.99;53.94
11621;BME280;5866;49.094;11.900;2023-03-23T12:51:45;95656.66;;;18.28;53.98
11621;BME280;5866;49.094;11.900;2023-03-23T12:54:19;95653.63;;;18.61;53.13
11621;BME280;5866;49.094;11.900;2023-03-23T12:56:53;95654.56;;;18.55;52.29
11621;BME280;5866;49.094;11.900;2023-03-23T12:59:25;95645.78;;;18.05;54.53
11621;BME280;5866;49.094;11.900;2023-03-23T13:01:59;95648.31;;;18.18;54.53
11621;BME280;5866;49.094;11.900;2023-03-23T13:04:30;95656.94;;;18.63;52.85
11621;BME280;5866;49.094;11.900;2023-03-23T13:07:01;95651.00;;;18.18;53.74
11621;BME280;5866;49.094;11.900;2023-03-23T13:09:33;95645.63;;;18.73;53.66
11621;BME280;5866;49.094;11.900;2023-03-23T13:12:02;95642.88;;;18.25;54.05
11621;BME280;5866;49.094;11.900;2023-03-23T13:14:40;95646.66;;;17.99;57.00
11621;BME280;5866;49.094;11.900;2023-03-23T13:17:20;95640.66;;;17.79;56.65
11621;BME280;5866;49.094;11.900;2023-03-23T13:22:48;95645.66;;;18.55;54.49